sensor_id;sensor_type;location;lat;lon;timestamp;P1;durP1;ratioP1;P2;durP2;ratioP2
10170;SDS011;5127;50.922;6.988;2023-02-01T00:01:04;7.40;;;5.13;;
10170;SDS011;5127;50.922;6.988;2023-02-01T00:03:32;9.50;;;4.57;;
10170;SDS011;5127;50.922;6.988;2023-02-01T00:05:59;7.77;;;5.00;;
10170;SDS011;5127;50.922;6.988;2023-02-01T00:08:26;9.30;;;4.47;;
10170;SDS011;5127;50.922;6.988;2023-02-01T00:11:03;9.47;;;5.20;;
10170;SDS011;5127;50.922;6.988;2023-02-01T00:13:33;7.80;;;4.20;;
10170;SDS011;5127;50.922;6.988;2023-02-01T00:16:04;12.73;;;5.00;;
10170;SDS011;5127;50.922;6.988;2023-02-01T00:18:32;10.80;;;4.50;;
10170;SDS011;5127;50.922;6.988;2023-02-01T00:20:59;9.53;;;4.50;;
10170;SDS011;5127;50.922;6.988;2023-02-01T00:23:27;8.43;;;4.87;;
10170;SDS011;5127;50.922;6.988;2023-02-01T00:25:54;11.77;;;4.70;;
10170;SDS011;5127;50.922;6.988;2023-02-01T00:28:22;10.17;;;4.53;;
10170;SDS011;5127;50.922;6.988;2023-02-01T00:30:55;9.90;;;4.97;;
10170;SDS011;5127;50.922;6.988;2023-02-01T00:33:23;10.40;;;4.83;;
10170;SDS011;5127;50.922;6.988;2023-02-01T00:35:50;8.90;;;5.07;;
10170;SDS011;5127;50.922;6.988;2023-02-01T00:38:22;12.63;;;4.47;;
10170;SDS011;5127;50.922;6.988;2023-02-01T00:40:50;9.67;;;4.63;;
10170;SDS011;5127;50.922;6.988;2023-02-01T00:43:17;8.47;;;4.17;;
10170;SDS011;5127;50.922;6.988;2023-02-01T00:45:46;9.87;;;4.77;;
10170;SDS011;5127;50.922;6.988;2023-02-01T00:48:13;10.03;;;4.20;;
10170;SDS011;5127;50.922;6.988;2023-02-01T00:50:41;12.03;;;4.50;;
10170;SDS011;5127;50.922;6.988;2023-02-01T00:53:08;9.80;;;4.00;;
10170;SDS011;5127;50.922;6.988;2023-02-01T00:55:36;10.07;;;3.90;;
10170;SDS011;5127;50.922;6.988;2023-02-01T00:58:03;10.03;;;4.03;;
10170;SDS011;5127;50.922;6.988;2023-02-01T01:00:31;8.83;;;4.00;;
10170;SDS011;5127;50.922;6.988;2023-02-01T01:03:00;7.50;;;4.03;;
10170;SDS011;5127;50.922;6.988;2023-02-01T01:05:27;7.70;;;3.40;;
10170;SDS011;5127;50.922;6.988;2023-02-01T01:07:54;8.07;;;3.40;;
10170;SDS011;5127;50.922;6.988;2023-02-01T01:10:21;9.77;;;3.40;;
10170;SDS011;5127;50.922;6.988;2023-02-01T01:12:49;10.03;;;3.37;;
10170;SDS011;5127;50.922;6.988;2023-02-01T01:15:16;8.03;;;3.23;;
10170;SDS011;5127;50.922;6.988;2023-02-01T01:17:44;11.33;;;3.30;;
10170;SDS011;5127;50.922;6.988;2023-02-01T01:20:13;8.13;;;3.43;;
10170;SDS011;5127;50.922;6.988;2023-02-01T01:22:40;8.27;;;3.00;;
10170;SDS011;5127;50.922;6.988;2023-02-01T01:25:07;9.97;;;3.07;;
10170;SDS011;5127;50.922;6.988;2023-02-01T01:27:34;9.07;;;3.10;;
10170;SDS011;5127;50.922;6.988;2023-02-01T01:30:02;8.07;;;3.10;;
10170;SDS011;5127;50.922;6.988;2023-02-01T01:32:30;8.00;;;2.90;;
10170;SDS011;5127;50.922;6.988;2023-02-01T01:34:57;10.10;;;2.90;;
10170;SDS011;5127;50.922;6.988;2023-02-01T01:37:25;8.63;;;3.17;;
10170;SDS011;5127;50.922;6.988;2023-02-01T01:39:53;4.47;;;2.40;;
10170;SDS011;5127;50.922;6.988;2023-02-01T01:42:21;6.23;;;2.40;;
10170;SDS011;5127;50.922;6.988;2023-02-01T01:45:01;6.60;;;2.50;;
10170;SDS011;5127;50.922;6.988;2023-02-01T01:47:32;8.93;;;2.33;;
10170;SDS011;5127;50.922;6.988;2023-02-01T01:50:03;7.17;;;2.70;;
10170;SDS011;5127;50.922;6.988;2023-02-01T01:52:35;8.30;;;2.47;;
10170;SDS011;5127;50.922;6.988;2023-02-01T01:55:04;6.43;;;2.60;;
10170;SDS011;5127;50.922;6.988;2023-02-01T01:57:33;6.70;;;2.47;;
10170;SDS011;5127;50.922;6.988;2023-02-01T02:00:05;8.90;;;2.30;;
10170;SDS011;5127;50.922;6.988;2023-02-01T02:02:43;6.53;;;2.10;;
10170;SDS011;5127;50.922;6.988;2023-02-01T02:05:14;8.03;;;2.30;;
10170;SDS011;5127;50.922;6.988;2023-02-01T02:07:45;7.03;;;2.17;;
10170;SDS011;5127;50.922;6.988;2023-02-01T02:10:15;8.93;;;2.30;;
10170;SDS011;5127;50.922;6.988;2023-02-01T02:12:43;10.23;;;2.57;;
10170;SDS011;5127;50.922;6.988;2023-02-01T02:15:14;10.20;;;2.60;;
10170;SDS011;5127;50.922;6.988;2023-02-01T02:17:44;6.17;;;2.30;;
10170;SDS011;5127;50.922;6.988;2023-02-01T02:23:20;10.40;;;2.70;;
10170;SDS011;5127;50.922;6.988;2023-02-01T02:26:24;7.77;;;2.30;;
10170;SDS011;5127;50.922;6.988;2023-02-01T02:29:04;8.10;;;2.57;;
10170;SDS011;5127;50.922;6.988;2023-02-01T02:32:04;11.50;;;2.47;;
10170;SDS011;5127;50.922;6.988;2023-02-01T02:34:49;8.67;;;2.77;;
10170;SDS011;5127;50.922;6.988;2023-02-01T02:37:24;11.93;;;3.10;;
10170;SDS011;5127;50.922;6.988;2023-02-01T02:40:00;8.47;;;2.93;;
10170;SDS011;5127;50.922;6.988;2023-02-01T02:42:34;6.90;;;2.80;;
10170;SDS011;5127;50.922;6.988;2023-02-01T02:45:27;10.57;;;2.90;;
10170;SDS011;5127;50.922;6.988;2023-02-01T02:48:30;9.80;;;3.00;;
10170;SDS011;5127;50.922;6.988;2023-02-01T02:51:07;10.03;;;2.87;;
10170;SDS011;5127;50.922;6.988;2023-02-01T02:53:58;10.33;;;2.83;;
10170;SDS011;5127;50.922;6.988;2023-02-01T02:56:50;8.03;;;3.10;;
10170;SDS011;5127;50.922;6.988;2023-02-01T02:59:36;7.00;;;2.70;;
10170;SDS011;5127;50.922;6.988;2023-02-01T03:02:24;9.73;;;3.07;;
10170;SDS011;5127;50.922;6.988;2023-02-01T03:05:11;9.10;;;3.27;;
10170;SDS011;5127;50.922;6.988;2023-02-01T03:07:49;8.23;;;3.13;;
10170;SDS011;5127;50.922;6.988;2023-02-01T03:10:26;9.07;;;3.50;;
10170;SDS011;5127;50.922;6.988;2023-02-01T03:13:00;8.47;;;3.33;;
10170;SDS011;5127;50.922;6.988;2023-02-01T03:15:32;9.27;;;3.30;;
10170;SDS011;5127;50.922;6.988;2023-02-01T03:18:03;8.70;;;3.13;;
10170;SDS011;5127;50.922;6.988;2023-02-01T03:20:37;8.47;;;3.53;;
10170;SDS011;5127;50.922;6.988;2023-02-01T03:23:08;10.80;;;3.87;;
10170;SDS011;5127;50.922;6.988;2023-02-01T03:25:37;8.13;;;3.50;;
10170;SDS011;5127;50.922;6.988;2023-02-01T03:28:06;10.00;;;3.50;;
10170;SDS011;5127;50.922;6.988;2023-02-01T03:30:35;9.73;;;4.03;;
10170;SDS011;5127;50.922;6.988;2023-02-01T03:33:06;9.70;;;3.50;;
10170;SDS011;5127;50.922;6.988;2023-02-01T03:35:40;8.13;;;3.63;;
10170;SDS011;5127;50.922;6.988;2023-02-01T03:38:19;11.07;;;3.80;;
10170;SDS011;5127;50.922;6.988;2023-02-01T03:40:51;9.03;;;3.93;;
10170;SDS011;5127;50.922;6.988;2023-02-01T03:43:22;7.70;;;3.40;;
10170;SDS011;5127;50.922;6.988;2023-02-01T03:45:52;12.30;;;3.90;;
10170;SDS011;5127;50.922;6.988;2023-02-01T03:48:25;8.60;;;3.30;;
10170;SDS011;5127;50.922;6.988;2023-02-01T03:50:55;12.50;;;3.77;;
10170;SDS011;5127;50.922;6.988;2023-02-01T03:53:27;8.60;;;3.43;;
10170;SDS011;5127;50.922;6.988;2023-02-01T03:55:55;11.47;;;3.70;;
10170;SDS011;5127;50.922;6.988;2023-02-01T03:58:24;10.80;;;3.50;;
10170;SDS011;5127;50.922;6.988;2023-02-01T04:00:53;10.63;;;3.30;;
10170;SDS011;5127;50.922;6.988;2023-02-01T04:03:22;9.60;;;3.67;;
10170;SDS011;5127;50.922;6.988;2023-02-01T04:05:51;13.37;;;3.53;;
10170;SDS011;5127;50.922;6.988;2023-02-01T04:08:27;7.83;;;3.40;;
10170;SDS011;5127;50.922;6.988;2023-02-01T04:10:55;10.97;;;3.60;;
10170;SDS011;5127;50.922;6.988;2023-02-01T04:13:22;10.47;;;3.70;;
10170;SDS011;5127;50.922;6.988;2023-02-01T04:15:49;11.80;;;3.63;;
10170;SDS011;5127;50.922;6.988;2023-02-01T04:18:16;9.10;;;2.93;;
10170;SDS011;5127;50.922;6.988;2023-02-01T04:20:43;11.10;;;3.10;;
10170;SDS011;5127;50.922;6.988;2023-02-01T04:23:11;10.57;;;3.10;;
10170;SDS011;5127;50.922;6.988;2023-02-01T04:25:40;8.90;;;3.37;;
10170;SDS011;5127;50.922;6.988;2023-02-01T04:28:07;9.27;;;3.43;;
10170;SDS011;5127;50.922;6.988;2023-02-01T04:30:34;12.97;;;3.10;;
10170;SDS011;5127;50.922;6.988;2023-02-01T04:33:01;12.83;;;3.70;;
10170;SDS011;5127;50.922;6.988;2023-02-01T04:35:32;12.93;;;3.33;;
10170;SDS011;5127;50.922;6.988;2023-02-01T04:37:59;11.43;;;3.43;;
10170;SDS011;5127;50.922;6.988;2023-02-01T04:40:26;8.63;;;3.13;;
10170;SDS011;5127;50.922;6.988;2023-02-01T04:42:55;9.43;;;2.93;;
10170;SDS011;5127;50.922;6.988;2023-02-01T04:45:22;7.10;;;3.07;;
10170;SDS011;5127;50.922;6.988;2023-02-01T04:47:50;7.80;;;3.30;;
10170;SDS011;5127;50.922;6.988;2023-02-01T04:50:17;10.37;;;3.37;;
10170;SDS011;5127;50.922;6.988;2023-02-01T04:52:45;9.53;;;3.13;;
10170;SDS011;5127;50.922;6.988;2023-02-01T04:55:12;9.87;;;3.33;;
10170;SDS011;5127;50.922;6.988;2023-02-01T04:57:40;10.97;;;3.40;;
10170;SDS011;5127;50.922;6.988;2023-02-01T05:00:09;9.77;;;3.10;;
10170;SDS011;5127;50.922;6.988;2023-02-01T05:02:38;7.23;;;3.03;;
10170;SDS011;5127;50.922;6.988;2023-02-01T05:05:06;13.07;;;3.43;;
10170;SDS011;5127;50.922;6.988;2023-02-01T05:07:33;10.10;;;3.30;;
10170;SDS011;5127;50.922;6.988;2023-02-01T05:10:00;11.37;;;3.50;;
10170;SDS011;5127;50.922;6.988;2023-02-01T05:12:28;8.33;;;3.10;;
10170;SDS011;5127;50.922;6.988;2023-02-01T05:15:14;11.03;;;3.20;;
10170;SDS011;5127;50.922;6.988;2023-02-01T05:17:41;9.73;;;2.80;;
10170;SDS011;5127;50.922;6.988;2023-02-01T05:20:09;7.83;;;2.97;;
10170;SDS011;5127;50.922;6.988;2023-02-01T05:22:37;8.83;;;3.07;;
10170;SDS011;5127;50.922;6.988;2023-02-01T05:25:04;9.60;;;2.73;;
10170;SDS011;5127;50.922;6.988;2023-02-01T05:27:32;16.50;;;2.97;;
10170;SDS011;5127;50.922;6.988;2023-02-01T05:29:59;14.53;;;3.20;;
10170;SDS011;5127;50.922;6.988;2023-02-01T05:32:27;9.67;;;2.60;;
10170;SDS011;5127;50.922;6.988;2023-02-01T05:34:54;9.13;;;2.93;;
10170;SDS011;5127;50.922;6.988;2023-02-01T05:37:22;9.73;;;2.93;;
10170;SDS011;5127;50.922;6.988;2023-02-01T05:39:49;10.93;;;3.00;;
10170;SDS011;5127;50.922;6.988;2023-02-01T05:42:16;11.73;;;2.90;;
10170;SDS011;5127;50.922;6.988;2023-02-01T05:44:44;10.00;;;2.60;;
10170;SDS011;5127;50.922;6.988;2023-02-01T05:47:11;11.37;;;2.83;;
10170;SDS011;5127;50.922;6.988;2023-02-01T05:49:40;13.10;;;3.13;;
10170;SDS011;5127;50.922;6.988;2023-02-01T05:52:07;11.87;;;3.83;;
10170;SDS011;5127;50.922;6.988;2023-02-01T05:54:34;11.00;;;2.67;;
10170;SDS011;5127;50.922;6.988;2023-02-01T05:57:02;9.83;;;2.80;;
10170;SDS011;5127;50.922;6.988;2023-02-01T05:59:29;8.80;;;2.93;;
10170;SDS011;5127;50.922;6.988;2023-02-01T06:01:56;12.93;;;3.27;;
10170;SDS011;5127;50.922;6.988;2023-02-01T06:04:24;17.63;;;3.00;;
10170;SDS011;5127;50.922;6.988;2023-02-01T06:06:52;11.93;;;3.07;;
10170;SDS011;5127;50.922;6.988;2023-02-01T06:09:19;11.40;;;3.00;;
10170;SDS011;5127;50.922;6.988;2023-02-01T06:11:47;13.03;;;3.37;;
10170;SDS011;5127;50.922;6.988;2023-02-01T06:14:14;11.73;;;3.33;;
10170;SDS011;5127;50.922;6.988;2023-02-01T06:16:41;9.87;;;3.27;;
10170;SDS011;5127;50.922;6.988;2023-02-01T06:19:11;12.50;;;3.30;;
10170;SDS011;5127;50.922;6.988;2023-02-01T06:21:38;9.93;;;3.00;;
10170;SDS011;5127;50.922;6.988;2023-02-01T06:24:07;10.97;;;3.07;;
10170;SDS011;5127;50.922;6.988;2023-02-01T06:26:35;12.87;;;3.10;;
10170;SDS011;5127;50.922;6.988;2023-02-01T06:29:02;11.97;;;3.20;;
10170;SDS011;5127;50.922;6.988;2023-02-01T06:31:32;10.23;;;2.97;;
10170;SDS011;5127;50.922;6.988;2023-02-01T06:33:59;11.23;;;2.90;;
10170;SDS011;5127;50.922;6.988;2023-02-01T06:36:26;10.07;;;2.60;;
10170;SDS011;5127;50.922;6.988;2023-02-01T06:38:53;12.37;;;3.00;;
10170;SDS011;5127;50.922;6.988;2023-02-01T06:41:23;12.40;;;2.97;;
10170;SDS011;5127;50.922;6.988;2023-02-01T06:43:51;14.57;;;3.17;;
10170;SDS011;5127;50.922;6.988;2023-02-01T06:46:18;10.27;;;2.47;;
10170;SDS011;5127;50.922;6.988;2023-02-01T06:48:45;9.37;;;2.73;;
10170;SDS011;5127;50.922;6.988;2023-02-01T06:51:18;14.70;;;3.37;;
10170;SDS011;5127;50.922;6.988;2023-02-01T06:53:47;15.30;;;3.17;;
10170;SDS011;5127;50.922;6.988;2023-02-01T06:56:14;10.30;;;2.73;;
10170;SDS011;5127;50.922;6.988;2023-02-01T06:58:43;13.07;;;3.17;;
10170;SDS011;5127;50.922;6.988;2023-02-01T07:01:11;13.23;;;3.00;;
10170;SDS011;5127;50.922;6.988;2023-02-01T07:03:38;9.73;;;3.10;;
10170;SDS011;5127;50.922;6.988;2023-02-01T07:06:06;10.90;;;3.20;;
10170;SDS011;5127;50.922;6.988;2023-02-01T07:08:35;10.73;;;3.13;;
10170;SDS011;5127;50.922;6.988;2023-02-01T07:11:04;11.80;;;3.10;;
10170;SDS011;5127;50.922;6.988;2023-02-01T07:13:32;15.70;;;3.53;;
10170;SDS011;5127;50.922;6.988;2023-02-01T07:16:01;13.30;;;3.20;;
10170;SDS011;5127;50.922;6.988;2023-02-01T07:18:30;10.57;;;2.27;;
10170;SDS011;5127;50.922;6.988;2023-02-01T07:20:58;13.53;;;2.80;;
10170;SDS011;5127;50.922;6.988;2023-02-01T07:23:25;11.53;;;2.90;;
10170;SDS011;5127;50.922;6.988;2023-02-01T07:25:54;9.00;;;2.73;;
10170;SDS011;5127;50.922;6.988;2023-02-01T07:28:22;13.50;;;3.50;;
10170;SDS011;5127;50.922;6.988;2023-02-01T07:30:49;10.10;;;2.83;;
10170;SDS011;5127;50.922;6.988;2023-02-01T07:33:19;13.67;;;3.00;;
10170;SDS011;5127;50.922;6.988;2023-02-01T07:35:47;10.70;;;3.10;;
10170;SDS011;5127;50.922;6.988;2023-02-01T07:38:15;11.80;;;3.00;;
10170;SDS011;5127;50.922;6.988;2023-02-01T07:40:43;11.27;;;2.73;;
10170;SDS011;5127;50.922;6.988;2023-02-01T07:43:10;9.63;;;2.60;;
10170;SDS011;5127;50.922;6.988;2023-02-01T07:45:38;9.80;;;2.33;;
10170;SDS011;5127;50.922;6.988;2023-02-01T07:48:05;10.10;;;2.83;;
10170;SDS011;5127;50.922;6.988;2023-02-01T07:50:33;9.97;;;2.80;;
10170;SDS011;5127;50.922;6.988;2023-02-01T07:53:01;9.13;;;2.47;;
10170;SDS011;5127;50.922;6.988;2023-02-01T07:55:28;13.87;;;3.07;;
10170;SDS011;5127;50.922;6.988;2023-02-01T07:57:58;11.17;;;2.93;;
10170;SDS011;5127;50.922;6.988;2023-02-01T08:00:26;13.07;;;2.87;;
10170;SDS011;5127;50.922;6.988;2023-02-01T08:03:10;10.67;;;2.87;;
10170;SDS011;5127;50.922;6.988;2023-02-01T08:05:39;8.93;;;2.73;;
10170;SDS011;5127;50.922;6.988;2023-02-01T08:08:06;12.20;;;2.93;;
10170;SDS011;5127;50.922;6.988;2023-02-01T08:10:34;11.13;;;2.80;;
10170;SDS011;5127;50.922;6.988;2023-02-01T08:13:02;10.40;;;2.93;;
10170;SDS011;5127;50.922;6.988;2023-02-01T08:15:29;11.57;;;2.67;;
10170;SDS011;5127;50.922;6.988;2023-02-01T08:17:57;11.57;;;2.80;;
10170;SDS011;5127;50.922;6.988;2023-02-01T08:20:25;10.40;;;2.63;;
10170;SDS011;5127;50.922;6.988;2023-02-01T08:22:54;12.87;;;2.57;;
10170;SDS011;5127;50.922;6.988;2023-02-01T08:25:22;9.57;;;2.97;;
10170;SDS011;5127;50.922;6.988;2023-02-01T08:27:49;9.90;;;2.63;;
10170;SDS011;5127;50.922;6.988;2023-02-01T08:30:17;9.83;;;2.57;;
10170;SDS011;5127;50.922;6.988;2023-02-01T08:32:44;11.90;;;3.03;;
10170;SDS011;5127;50.922;6.988;2023-02-01T08:35:12;13.97;;;2.70;;
10170;SDS011;5127;50.922;6.988;2023-02-01T08:37:39;14.03;;;3.33;;
10170;SDS011;5127;50.922;6.988;2023-02-01T08:40:08;11.70;;;2.67;;
10170;SDS011;5127;50.922;6.988;2023-02-01T08:42:36;11.23;;;2.77;;
10170;SDS011;5127;50.922;6.988;2023-02-01T08:45:20;8.87;;;2.77;;
10170;SDS011;5127;50.922;6.988;2023-02-01T08:47:50;8.77;;;2.17;;
10170;SDS011;5127;50.922;6.988;2023-02-01T08:50:17;11.77;;;2.77;;
10170;SDS011;5127;50.922;6.988;2023-02-01T08:52:45;10.37;;;2.87;;
10170;SDS011;5127;50.922;6.988;2023-02-01T08:55:14;8.67;;;2.40;;
10170;SDS011;5127;50.922;6.988;2023-02-01T08:57:42;9.63;;;2.43;;
10170;SDS011;5127;50.922;6.988;2023-02-01T09:00:11;14.20;;;2.90;;
10170;SDS011;5127;50.922;6.988;2023-02-01T09:02:40;11.20;;;2.83;;
10170;SDS011;5127;50.922;6.988;2023-02-01T09:05:08;8.90;;;2.40;;
10170;SDS011;5127;50.922;6.988;2023-02-01T09:07:36;8.03;;;2.37;;
10170;SDS011;5127;50.922;6.988;2023-02-01T09:10:03;12.00;;;2.63;;
10170;SDS011;5127;50.922;6.988;2023-02-01T09:12:33;9.50;;;2.43;;
10170;SDS011;5127;50.922;6.988;2023-02-01T09:15:01;10.47;;;2.83;;
10170;SDS011;5127;50.922;6.988;2023-02-01T09:17:29;9.97;;;2.40;;
10170;SDS011;5127;50.922;6.988;2023-02-01T09:19:56;11.40;;;2.50;;
10170;SDS011;5127;50.922;6.988;2023-02-01T09:22:23;9.30;;;2.57;;
10170;SDS011;5127;50.922;6.988;2023-02-01T09:24:51;10.40;;;2.90;;
10170;SDS011;5127;50.922;6.988;2023-02-01T09:27:18;11.63;;;2.67;;
10170;SDS011;5127;50.922;6.988;2023-02-01T09:29:47;12.90;;;3.13;;
10170;SDS011;5127;50.922;6.988;2023-02-01T09:32:18;9.07;;;2.83;;
10170;SDS011;5127;50.922;6.988;2023-02-01T09:34:45;11.23;;;3.07;;
10170;SDS011;5127;50.922;6.988;2023-02-01T09:37:12;9.87;;;2.90;;
10170;SDS011;5127;50.922;6.988;2023-02-01T09:39:40;11.13;;;2.97;;
10170;SDS011;5127;50.922;6.988;2023-02-01T09:42:14;9.37;;;2.50;;
10170;SDS011;5127;50.922;6.988;2023-02-01T09:45:01;11.00;;;2.73;;
10170;SDS011;5127;50.922;6.988;2023-02-01T09:47:42;10.83;;;2.40;;
10170;SDS011;5127;50.922;6.988;2023-02-01T09:50:15;7.23;;;2.47;;
10170;SDS011;5127;50.922;6.988;2023-02-01T09:52:48;12.60;;;2.80;;
10170;SDS011;5127;50.922;6.988;2023-02-01T09:55:23;12.67;;;3.03;;
10170;SDS011;5127;50.922;6.988;2023-02-01T09:57:58;11.17;;;3.03;;
10170;SDS011;5127;50.922;6.988;2023-02-01T10:00:30;8.80;;;2.77;;
10170;SDS011;5127;50.922;6.988;2023-02-01T10:03:01;10.03;;;2.83;;
10170;SDS011;5127;50.922;6.988;2023-02-01T10:05:44;12.70;;;3.10;;
10170;SDS011;5127;50.922;6.988;2023-02-01T10:08:42;11.27;;;2.77;;
10170;SDS011;5127;50.922;6.988;2023-02-01T10:11:27;14.20;;;2.83;;
10170;SDS011;5127;50.922;6.988;2023-02-01T10:14:15;8.60;;;3.00;;
10170;SDS011;5127;50.922;6.988;2023-02-01T10:17:04;10.50;;;2.70;;
10170;SDS011;5127;50.922;6.988;2023-02-01T10:19:43;7.30;;;2.37;;
10170;SDS011;5127;50.922;6.988;2023-02-01T10:22:17;10.27;;;2.90;;
10170;SDS011;5127;50.922;6.988;2023-02-01T10:24:51;13.77;;;3.40;;
10170;SDS011;5127;50.922;6.988;2023-02-01T10:27:24;14.13;;;3.00;;
10170;SDS011;5127;50.922;6.988;2023-02-01T10:29:57;7.87;;;2.43;;
10170;SDS011;5127;50.922;6.988;2023-02-01T10:32:30;15.70;;;3.03;;
10170;SDS011;5127;50.922;6.988;2023-02-01T10:35:00;8.97;;;2.70;;
10170;SDS011;5127;50.922;6.988;2023-02-01T10:37:32;13.80;;;3.37;;
10170;SDS011;5127;50.922;6.988;2023-02-01T10:40:01;11.20;;;3.07;;
10170;SDS011;5127;50.922;6.988;2023-02-01T10:42:38;7.97;;;2.63;;
10170;SDS011;5127;50.922;6.988;2023-02-01T10:45:06;10.80;;;3.03;;
10170;SDS011;5127;50.922;6.988;2023-02-01T10:47:41;9.90;;;2.33;;
10170;SDS011;5127;50.922;6.988;2023-02-01T10:50:13;9.10;;;2.47;;
10170;SDS011;5127;50.922;6.988;2023-02-01T10:52:46;8.70;;;2.47;;
10170;SDS011;5127;50.922;6.988;2023-02-01T10:55:30;7.57;;;2.47;;
10170;SDS011;5127;50.922;6.988;2023-02-01T10:58:01;9.10;;;2.50;;
10170;SDS011;5127;50.922;6.988;2023-02-01T11:00:34;7.57;;;2.30;;
10170;SDS011;5127;50.922;6.988;2023-02-01T11:03:24;11.97;;;2.60;;
10170;SDS011;5127;50.922;6.988;2023-02-01T11:06:04;8.30;;;2.30;;
10170;SDS011;5127;50.922;6.988;2023-02-01T11:08:47;8.63;;;2.77;;
10170;SDS011;5127;50.922;6.988;2023-02-01T11:11:17;9.10;;;2.77;;
10170;SDS011;5127;50.922;6.988;2023-02-01T11:13:44;7.40;;;2.40;;
10170;SDS011;5127;50.922;6.988;2023-02-01T11:16:19;8.10;;;2.33;;
10170;SDS011;5127;50.922;6.988;2023-02-01T11:18:52;9.83;;;2.53;;
10170;SDS011;5127;50.922;6.988;2023-02-01T11:21:20;6.60;;;2.40;;
10170;SDS011;5127;50.922;6.988;2023-02-01T11:23:47;13.07;;;2.80;;
10170;SDS011;5127;50.922;6.988;2023-02-01T11:26:19;8.83;;;2.50;;
10170;SDS011;5127;50.922;6.988;2023-02-01T11:28:54;6.23;;;2.03;;
10170;SDS011;5127;50.922;6.988;2023-02-01T11:31:26;7.77;;;2.47;;
10170;SDS011;5127;50.922;6.988;2023-02-01T11:33:58;11.97;;;3.20;;
10170;SDS011;5127;50.922;6.988;2023-02-01T11:36:32;11.17;;;2.70;;
10170;SDS011;5127;50.922;6.988;2023-02-01T11:39:14;11.40;;;3.10;;
10170;SDS011;5127;50.922;6.988;2023-02-01T11:41:55;10.57;;;2.73;;
10170;SDS011;5127;50.922;6.988;2023-02-01T11:44:26;8.83;;;2.50;;
10170;SDS011;5127;50.922;6.988;2023-02-01T11:47:12;10.17;;;3.00;;
10170;SDS011;5127;50.922;6.988;2023-02-01T11:49:47;9.70;;;2.77;;
10170;SDS011;5127;50.922;6.988;2023-02-01T11:52:17;11.60;;;2.77;;
10170;SDS011;5127;50.922;6.988;2023-02-01T11:54:57;9.67;;;2.47;;
10170;SDS011;5127;50.922;6.988;2023-02-01T11:57:38;8.80;;;2.80;;
10170;SDS011;5127;50.922;6.988;2023-02-01T12:00:20;10.53;;;2.57;;
10170;SDS011;5127;50.922;6.988;2023-02-01T12:03:04;7.30;;;2.37;;
10170;SDS011;5127;50.922;6.988;2023-02-01T12:05:56;10.90;;;2.93;;
10170;SDS011;5127;50.922;6.988;2023-02-01T12:08:36;8.97;;;2.30;;
10170;SDS011;5127;50.922;6.988;2023-02-01T12:11:18;10.37;;;2.60;;
10170;SDS011;5127;50.922;6.988;2023-02-01T12:13:59;12.37;;;2.90;;
10170;SDS011;5127;50.922;6.988;2023-02-01T12:16:47;9.17;;;2.40;;
10170;SDS011;5127;50.922;6.988;2023-02-01T12:19:31;7.03;;;2.07;;
10170;SDS011;5127;50.922;6.988;2023-02-01T12:22:18;9.47;;;2.77;;
10170;SDS011;5127;50.922;6.988;2023-02-01T12:25:13;8.13;;;2.60;;
10170;SDS011;5127;50.922;6.988;2023-02-01T12:30:59;11.17;;;2.70;;
10170;SDS011;5127;50.922;6.988;2023-02-01T12:33:53;6.83;;;2.07;;
10170;SDS011;5127;50.922;6.988;2023-02-01T12:36:32;9.70;;;2.60;;
10170;SDS011;5127;50.922;6.988;2023-02-01T12:39:09;7.03;;;2.60;;
10170;SDS011;5127;50.922;6.988;2023-02-01T12:41:47;8.87;;;2.50;;
10170;SDS011;5127;50.922;6.988;2023-02-01T12:44:27;7.73;;;2.40;;
10170;SDS011;5127;50.922;6.988;2023-02-01T12:47:00;8.50;;;2.17;;
10170;SDS011;5127;50.922;6.988;2023-02-01T12:49:36;9.40;;;2.23;;
10170;SDS011;5127;50.922;6.988;2023-02-01T12:52:11;10.70;;;2.70;;
10170;SDS011;5127;50.922;6.988;2023-02-01T12:54:45;11.37;;;3.00;;
10170;SDS011;5127;50.922;6.988;2023-02-01T12:57:17;9.13;;;2.43;;
10170;SDS011;5127;50.922;6.988;2023-02-01T12:59:51;11.30;;;2.53;;
10170;SDS011;5127;50.922;6.988;2023-02-01T13:02:25;8.47;;;2.10;;
10170;SDS011;5127;50.922;6.988;2023-02-01T13:05:04;8.43;;;2.27;;
10170;SDS011;5127;50.922;6.988;2023-02-01T13:07:41;11.40;;;2.67;;
10170;SDS011;5127;50.922;6.988;2023-02-01T13:10:15;8.67;;;2.20;;
10170;SDS011;5127;50.922;6.988;2023-02-01T13:12:47;7.87;;;1.87;;
10170;SDS011;5127;50.922;6.988;2023-02-01T13:15:21;10.07;;;2.53;;
10170;SDS011;5127;50.922;6.988;2023-02-01T13:17:52;9.70;;;2.43;;
10170;SDS011;5127;50.922;6.988;2023-02-01T13:20:25;7.67;;;2.50;;
10170;SDS011;5127;50.922;6.988;2023-02-01T13:22:58;6.53;;;1.80;;
10170;SDS011;5127;50.922;6.988;2023-02-01T13:25:31;10.20;;;2.60;;
10170;SDS011;5127;50.922;6.988;2023-02-01T13:28:05;7.33;;;2.17;;
10170;SDS011;5127;50.922;6.988;2023-02-01T13:30:46;7.50;;;2.57;;
10170;SDS011;5127;50.922;6.988;2023-02-01T13:33:27;11.47;;;2.70;;
10170;SDS011;5127;50.922;6.988;2023-02-01T13:36:27;8.57;;;2.67;;
10170;SDS011;5127;50.922;6.988;2023-02-01T13:39:27;5.63;;;2.23;;
10170;SDS011;5127;50.922;6.988;2023-02-01T13:42:14;9.23;;;2.40;;
10170;SDS011;5127;50.922;6.988;2023-02-01T13:44:45;7.50;;;2.13;;
10170;SDS011;5127;50.922;6.988;2023-02-01T13:47:21;11.17;;;2.37;;
10170;SDS011;5127;50.922;6.988;2023-02-01T13:49:51;6.90;;;2.10;;
10170;SDS011;5127;50.922;6.988;2023-02-01T13:52:28;7.37;;;2.20;;
10170;SDS011;5127;50.922;6.988;2023-02-01T13:55:02;6.50;;;1.90;;
10170;SDS011;5127;50.922;6.988;2023-02-01T13:57:42;9.80;;;2.40;;
10170;SDS011;5127;50.922;6.988;2023-02-01T14:00:23;7.03;;;2.30;;
10170;SDS011;5127;50.922;6.988;2023-02-01T14:09:19;11.10;;;2.47;;
10170;SDS011;5127;50.922;6.988;2023-02-01T14:11:58;10.20;;;2.30;;
10170;SDS011;5127;50.922;6.988;2023-02-01T14:15:20;7.37;;;2.20;;
10170;SDS011;5127;50.922;6.988;2023-02-01T14:17:49;6.40;;;2.30;;
10170;SDS011;5127;50.922;6.988;2023-02-01T14:23:15;9.03;;;2.07;;
10170;SDS011;5127;50.922;6.988;2023-02-01T14:26:01;8.30;;;2.27;;
10170;SDS011;5127;50.922;6.988;2023-02-01T14:28:55;8.03;;;2.10;;
10170;SDS011;5127;50.922;6.988;2023-02-01T14:31:37;6.03;;;1.90;;
10170;SDS011;5127;50.922;6.988;2023-02-01T14:34:28;7.87;;;2.10;;
10170;SDS011;5127;50.922;6.988;2023-02-01T14:37:02;9.40;;;2.00;;
10170;SDS011;5127;50.922;6.988;2023-02-01T14:39:37;7.03;;;2.10;;
10170;SDS011;5127;50.922;6.988;2023-02-01T14:42:17;6.23;;;1.90;;
10170;SDS011;5127;50.922;6.988;2023-02-01T14:44:49;11.23;;;2.17;;
10170;SDS011;5127;50.922;6.988;2023-02-01T14:47:29;8.67;;;2.17;;
10170;SDS011;5127;50.922;6.988;2023-02-01T14:50:13;7.17;;;1.97;;
10170;SDS011;5127;50.922;6.988;2023-02-01T14:55:47;5.40;;;1.87;;
10170;SDS011;5127;50.922;6.988;2023-02-01T14:58:30;8.37;;;2.37;;
10170;SDS011;5127;50.922;6.988;2023-02-01T15:01:03;6.63;;;1.90;;
10170;SDS011;5127;50.922;6.988;2023-02-01T15:03:38;7.87;;;2.17;;
10170;SDS011;5127;50.922;6.988;2023-02-01T15:08:58;7.37;;;1.80;;
10170;SDS011;5127;50.922;6.988;2023-02-01T15:11:29;11.77;;;2.10;;
10170;SDS011;5127;50.922;6.988;2023-02-01T15:13:57;7.20;;;1.97;;
10170;SDS011;5127;50.922;6.988;2023-02-01T15:16:26;8.50;;;2.13;;
10170;SDS011;5127;50.922;6.988;2023-02-01T15:21:45;6.00;;;1.70;;
10170;SDS011;5127;50.922;6.988;2023-02-01T15:24:14;5.87;;;2.10;;
10170;SDS011;5127;50.922;6.988;2023-02-01T15:26:46;7.37;;;2.30;;
10170;SDS011;5127;50.922;6.988;2023-02-01T15:29:14;7.07;;;1.93;;
10170;SDS011;5127;50.922;6.988;2023-02-01T15:31:42;6.60;;;1.60;;
10170;SDS011;5127;50.922;6.988;2023-02-01T15:34:11;9.87;;;2.30;;
10170;SDS011;5127;50.922;6.988;2023-02-01T15:36:41;8.33;;;1.93;;
10170;SDS011;5127;50.922;6.988;2023-02-01T15:39:13;8.37;;;2.03;;
10170;SDS011;5127;50.922;6.988;2023-02-01T15:41:46;6.57;;;1.90;;
10170;SDS011;5127;50.922;6.988;2023-02-01T15:44:20;5.10;;;1.80;;
10170;SDS011;5127;50.922;6.988;2023-02-01T15:46:55;6.97;;;1.70;;
10170;SDS011;5127;50.922;6.988;2023-02-01T15:49:25;5.80;;;1.77;;
10170;SDS011;5127;50.922;6.988;2023-02-01T15:51:56;7.33;;;1.90;;